createdAt,value
2023-04-17T00:03:04.234Z,9.12
2023-04-17T00:08:07.678Z,9.10
2023-04-17T00:13:11.722Z,9.03
2023-04-17T00:18:14.549Z,8.99
2023-04-17T00:23:17.236Z,8.79
2023-04-17T00:28:21.286Z,8.99
2023-04-17T00:33:23.971Z,8.91
2023-04-17T00:38:26.671Z,8.90
2023-04-17T00:43:30.766Z,8.91
2023-04-17T00:48:34.110Z,8.89
2023-04-17T00:53:37.024Z,8.88
2023-04-17T00:58:41.555Z,8.83
2023-04-17T01:03:44.844Z,8.87
2023-04-17T01:08:48.179Z,8.83
2023-04-17T01:13:52.437Z,8.82
2023-04-17T01:18:55.843Z,8.75
2023-04-17T01:24:03.394Z,8.75
2023-04-17T01:29:07.101Z,8.79
2023-04-17T01:34:10.379Z,8.74
2023-04-17T01:39:14.547Z,8.71
2023-04-17T01:44:17.324Z,8.72
2023-04-17T01:49:20.157Z,8.67
2023-04-17T01:54:24.955Z,8.63
2023-04-17T01:59:27.830Z,8.64
2023-04-17T02:04:30.794Z,8.58
2023-04-17T02:09:35.253Z,8.55
2023-04-17T02:14:38.047Z,8.66
2023-04-17T02:19:41.162Z,8.60
2023-04-17T02:24:45.645Z,8.61
2023-04-17T02:29:48.388Z,8.60
2023-04-17T02:34:51.366Z,8.54
2023-04-17T02:39:56.845Z,8.57
2023-04-17T02:44:59.898Z,8.48
2023-04-17T02:50:03.076Z,8.51
2023-04-17T02:55:12.917Z,8.48
2023-04-17T03:00:17.766Z,8.41
2023-04-17T03:05:23.193Z,8.42
2023-04-17T03:10:28.636Z,8.46
2023-04-17T03:15:31.492Z,8.38
2023-04-17T03:20:34.236Z,8.46
2023-04-17T03:25:39.014Z,8.38
2023-04-17T03:30:42.058Z,8.37
2023-04-17T03:35:46.220Z,8.38
2023-04-17T03:40:50.467Z,8.29
2023-04-17T03:45:53.400Z,8.38
2023-04-17T03:50:57.436Z,8.32
2023-04-17T03:56:01.675Z,8.34
2023-04-17T04:01:10.958Z,8.30
2023-04-17T04:06:20.323Z,8.33
2023-04-17T04:11:25.372Z,8.30
2023-04-17T04:16:28.374Z,8.25
2023-04-17T04:21:39.961Z,8.21
2023-04-17T04:26:47.264Z,8.33
2023-04-17T04:31:51.333Z,8.23
2023-04-17T04:36:57.457Z,8.25
2023-04-17T04:42:10.174Z,8.19
2023-04-17T04:47:42.225Z,8.11
2023-04-17T04:52:45.102Z,8.18
2023-04-17T04:58:04.616Z,8.15
2023-04-17T05:03:08.135Z,8.11
2023-04-17T05:08:11.197Z,7.98
2023-04-17T05:13:15.941Z,7.93
2023-04-17T05:18:18.820Z,7.98
2023-04-17T05:23:22.912Z,8.10
2023-04-17T05:28:29.619Z,8.08
2023-04-17T05:33:33.584Z,8.11
2023-04-17T05:38:37.912Z,8.11
2023-04-17T05:43:44.525Z,8.13
2023-04-17T05:48:47.762Z,8.16
2023-04-17T05:53:50.619Z,8.21
2023-04-17T05:58:54.638Z,8.11
2023-04-17T06:03:57.761Z,8.12
2023-04-17T06:09:04.406Z,8.24
2023-04-17T06:14:09.664Z,8.21
2023-04-17T06:19:13.640Z,8.21
2023-04-17T06:24:16.589Z,8.34
2023-04-17T06:29:24.260Z,8.47
2023-04-17T06:34:27.009Z,8.44
2023-04-17T06:39:31.740Z,8.41
2023-04-17T06:44:37.219Z,8.46
2023-04-17T06:49:48.200Z,8.74
2023-04-17T06:54:50.904Z,8.81
2023-04-17T06:59:55.005Z,8.76
2023-04-17T07:04:57.779Z,9.05
2023-04-17T07:10:00.642Z,9.17
2023-04-17T07:15:05.192Z,8.91
2023-04-17T07:20:09.206Z,9.14
2023-04-17T07:25:12.035Z,9.56
2023-04-17T07:30:16.347Z,9.18
2023-04-17T07:35:19.281Z,9.34
2023-04-17T07:40:22.197Z,9.71
2023-04-17T07:45:29.733Z,9.51
2023-04-17T07:50:33.301Z,9.70
2023-04-17T07:55:36.126Z,9.99
2023-04-17T08:00:41.501Z,9.65
2023-04-17T08:05:44.310Z,9.87
2023-04-17T08:10:47.516Z,10.22
2023-04-17T08:15:52.273Z,10.18
2023-04-17T08:20:55.086Z,10.25
2023-04-17T08:25:58.230Z,10.47
2023-04-17T08:31:02.479Z,10.98
2023-04-17T08:36:08.005Z,10.93
2023-04-17T08:41:13.267Z,11.39
2023-04-17T08:46:18.885Z,11.57
2023-04-17T08:51:27.911Z,11.48
2023-04-17T08:56:30.960Z,11.63
2023-04-17T09:01:35.850Z,11.73
2023-04-17T09:06:49.986Z,11.88
2023-04-17T09:12:11.080Z,11.67
2023-04-17T09:17:17.186Z,11.54
2023-04-17T09:22:20.911Z,11.73
2023-04-17T09:27:24.903Z,12.37
2023-04-17T09:32:29.550Z,11.72
2023-04-17T09:37:50.464Z,12.40
2023-04-17T09:43:00.290Z,12.54
2023-04-17T09:48:06.718Z,12.59
2023-04-17T09:53:09.521Z,12.60
2023-04-17T09:58:12.434Z,12.49
2023-04-17T10:03:17.861Z,12.99
2023-04-17T10:08:21.013Z,13.25
2023-04-17T10:13:27.124Z,13.06
2023-04-17T10:18:31.272Z,13.12
2023-04-17T10:23:34.895Z,13.57
2023-04-17T10:28:48.452Z,14.14
2023-04-17T10:33:53.022Z,13.97
2023-04-17T10:39:13.564Z,14.05
2023-04-17T10:44:16.511Z,14.32
2023-04-17T10:49:22.334Z,14.38
2023-04-17T10:54:25.204Z,14.64
2023-04-17T10:59:30.029Z,14.52
2023-04-17T11:04:34.769Z,15.12
2023-04-17T11:09:37.875Z,14.44
2023-04-17T11:14:42.526Z,14.93
2023-04-17T11:19:46.940Z,15.08
2023-04-17T11:24:51.909Z,14.72
2023-04-17T11:29:54.734Z,14.79
2023-04-17T11:34:58.819Z,15.49
2023-04-17T11:40:07.604Z,15.76
2023-04-17T11:45:11.462Z,15.66
2023-04-17T11:50:17.904Z,15.68
2023-04-17T11:55:20.877Z,15.75
2023-04-17T12:00:28.958Z,16.04
2023-04-17T12:05:33.112Z,16.41
2023-04-17T12:10:40.610Z,15.75
2023-04-17T12:15:43.648Z,14.96
2023-04-17T12:20:47.823Z,15.04
2023-04-17T12:25:50.638Z,15.12
2023-04-17T12:30:53.479Z,15.23
2023-04-17T12:35:57.750Z,15.73
2023-04-17T12:41:01.052Z,15.40
2023-04-17T12:46:03.910Z,15.01
2023-04-17T12:51:08.113Z,15.00
2023-04-17T12:56:11.009Z,15.58
2023-04-17T13:01:13.956Z,15.14
2023-04-17T13:06:18.191Z,15.84
2023-04-17T13:11:21.782Z,16.19
2023-04-17T13:16:24.705Z,16.15
2023-04-17T13:21:28.925Z,16.03
2023-04-17T13:26:31.761Z,16.62
2023-04-17T13:31:34.667Z,16.10
2023-04-17T13:36:39.159Z,16.51
2023-04-17T13:41:41.951Z,15.75
2023-04-17T13:46:45.073Z,16.42
2023-04-17T13:51:49.385Z,16.51
2023-04-17T13:56:52.216Z,16.17
2023-04-17T14:01:55.224Z,16.00
2023-04-17T14:06:59.560Z,15.44
2023-04-17T14:12:02.403Z,15.68
2023-04-17T14:17:05.240Z,15.35
2023-04-17T14:22:09.360Z,15.43
2023-04-17T14:27:12.166Z,15.71
2023-04-17T14:32:14.964Z,15.75
2023-04-17T14:37:19.734Z,16.04
2023-04-17T14:42:22.537Z,15.53
2023-04-17T14:47:25.323Z,15.76
2023-04-17T14:52:29.470Z,16.01
2023-04-17T14:57:32.280Z,15.84
2023-04-17T15:02:38.616Z,15.43
2023-04-17T15:07:43.184Z,15.10
2023-04-17T15:12:45.963Z,15.09
2023-04-17T15:17:48.857Z,15.33
2023-04-17T15:22:53.786Z,15.11
2023-04-17T15:27:56.638Z,14.99
2023-04-17T15:32:59.501Z,15.00
2023-04-17T15:38:03.749Z,14.99
2023-04-17T15:43:06.634Z,14.77
2023-04-17T15:48:10.094Z,15.14
2023-04-17T15:53:14.271Z,15.08
2023-04-17T15:58:17.283Z,15.20
2023-04-17T16:03:20.338Z,15.43
2023-04-17T16:08:24.622Z,15.40
2023-04-17T16:13:27.416Z,15.06
2023-04-17T16:18:30.210Z,15.10
2023-04-17T16:23:38.818Z,15.19
2023-04-17T16:28:41.693Z,14.88
2023-04-17T16:33:44.460Z,14.71
2023-04-17T16:38:48.586Z,14.49
2023-04-17T16:43:51.442Z,14.59
2023-04-17T16:48:54.365Z,14.69
2023-04-17T16:53:58.530Z,14.61
2023-04-17T16:59:01.693Z,14.31
2023-04-17T17:04:04.565Z,14.29
2023-04-17T17:09:08.775Z,14.30
2023-04-17T17:14:11.638Z,14.42
2023-04-17T17:19:14.779Z,14.40
2023-04-17T17:24:19.151Z,14.32
2023-04-17T17:29:21.935Z,14.33
2023-04-17T17:34:27.095Z,14.27
2023-04-17T17:39:31.701Z,14.18
2023-04-17T17:44:34.467Z,14.06
2023-04-17T17:49:37.275Z,13.94
2023-04-17T17:54:41.895Z,13.82
2023-04-17T17:59:44.929Z,13.67
2023-04-17T18:04:47.880Z,13.54
2023-04-17T18:09:52.159Z,13.44
2023-04-17T18:14:55.035Z,13.21
2023-04-17T18:19:57.805Z,13.21
2023-04-17T18:25:06.975Z,13.12
2023-04-17T18:30:10.804Z,12.90
2023-04-17T18:35:13.676Z,12.85
2023-04-17T18:40:17.922Z,12.64
2023-04-17T18:45:20.669Z,12.56
2023-04-17T18:50:23.400Z,12.47
2023-04-17T18:55:27.541Z,12.36
2023-04-17T19:00:30.390Z,12.21
2023-04-17T19:05:33.252Z,12.16
2023-04-17T19:10:39.899Z,12.07
2023-04-17T19:15:42.941Z,11.94
2023-04-17T19:20:45.929Z,11.85
2023-04-17T19:25:54.771Z,11.73
2023-04-17T19:30:59.169Z,11.63
2023-04-17T19:36:02.875Z,11.57
2023-04-17T19:41:17.157Z,11.41
2023-04-17T19:46:20.435Z,11.35
2023-04-17T19:51:23.300Z,11.26
2023-04-17T19:56:27.456Z,11.11
2023-04-17T20:01:30.723Z,11.02
2023-04-17T20:06:33.482Z,10.98
2023-04-17T20:11:37.827Z,10.77
2023-04-17T20:16:40.786Z,10.82
2023-04-17T20:21:43.926Z,10.66
2023-04-17T20:26:48.029Z,10.57
2023-04-17T20:31:50.950Z,10.44
2023-04-17T20:36:53.920Z,10.39
2023-04-17T20:41:58.106Z,10.27
2023-04-17T20:47:00.880Z,10.23
2023-04-17T20:52:03.656Z,10.11
2023-04-17T20:57:07.798Z,9.97
2023-04-17T21:02:10.778Z,9.80
2023-04-17T21:07:13.645Z,9.81
2023-04-17T21:12:17.736Z,9.86
2023-04-17T21:17:20.578Z,9.76
2023-04-17T21:22:23.317Z,9.71
2023-04-17T21:27:27.444Z,9.69
2023-04-17T21:32:30.278Z,9.56
2023-04-17T21:37:33.040Z,9.58
2023-04-17T21:42:37.179Z,9.37
2023-04-17T21:47:39.952Z,9.28
2023-04-17T21:52:42.728Z,9.25
2023-04-17T21:57:47.010Z,9.11
2023-04-17T22:02:49.799Z,9.20
2023-04-17T22:07:55.292Z,8.99
2023-04-17T22:12:59.667Z,8.84
2023-04-17T22:18:02.710Z,8.75
2023-04-17T22:23:05.375Z,8.54
2023-04-17T22:28:09.396Z,8.59
2023-04-17T22:33:12.044Z,8.39
2023-04-17T22:38:14.698Z,8.52
2023-04-17T22:43:18.722Z,8.24
2023-04-17T22:48:23.915Z,8.36
2023-04-17T22:53:27.585Z,8.25
2023-04-17T22:58:33.361Z,8.17
2023-04-17T23:03:36.269Z,8.08
2023-04-17T23:08:39.004Z,8.20
2023-04-17T23:13:43.074Z,8.39
2023-04-17T23:18:45.761Z,8.30
2023-04-17T23:23:48.618Z,8.29
2023-04-17T23:28:52.781Z,8.31
2023-04-17T23:33:55.735Z,8.11
2023-04-17T23:38:58.433Z,8.15
2023-04-17T23:44:03.678Z,8.17
2023-04-17T23:49:06.455Z,7.90
2023-04-17T23:54:09.258Z,7.99
2023-04-17T23:59:13.348Z,7.91
